Time;durP1;ratioP1;P1;durP2;ratioP2;P2;SDS_P1;SDS_P2;PMS_P1;PMS_P2;Temp;Humidity;BMP_temperature;BMP_pressure;BME280_temperature;BME280_humidity;BME280_pressure;Samples;Min_cycle;Max_cycle;Signal;HPM_P1;HPM_P2
2021/06/27 00:02:09;;;;;;;;;;;;;;;20.17;61.42;100420.31;5056627;28;873;-46
2021/06/27 00:04:34;;;;;;;;;;;;;;;19.56;60.71;100413.94;5056105;28;962;-45
2021/06/27 00:06:59;;;;;;;;;;;;;;;20.14;62.54;100394.13;5056810;28;593;-46
2021/06/27 00:09:27;;;;;;;;;;;;;;;20.44;61.92;100389.13;5056719;28;543;-45
2021/06/27 00:11:52;;;;;;;;;;;;;;;20.71;61.62;100390.22;5055925;28;800;-45
2021/06/27 00:14:18;;;;;;;;;;;;;;;20.89;61.12;100399.47;5056459;28;1909;-45
2021/06/27 00:16:43;;;;;;;;;;;;;;;21.00;61.32;100413.88;5056536;28;868;-46
2021/06/27 00:19:09;;;;;;;;;;;;;;;21.06;61.13;100400.75;5055647;28;951;-46
2021/06/27 00:21:34;;;;;;;;;;;;;;;20.21;64.26;100407.53;5056476;28;787;-46
2021/06/27 00:24:00;;;;;;;;;;;;;;;20.26;64.30;100412.13;5056632;28;1013;-45
2021/06/27 00:26:25;;;;;;;;;;;;;;;19.78;62.59;100400.34;5055825;28;803;-45
2021/06/27 00:28:51;;;;;;;;;;;;;;;20.39;63.88;100404.97;5038293;28;954;-45
2021/06/27 00:31:16;;;;;;;;;;;;;;;20.71;63.46;100420.59;5055687;28;851;-46
2021/06/27 00:33:42;;;;;;;;;;;;;;;21.02;62.26;100417.94;5055520;28;959;-46
2021/06/27 00:36:07;;;;;;;;;;;;;;;20.90;62.72;100414.09;5056341;28;1979;-46
2021/06/27 00:38:33;;;;;;;;;;;;;;;21.22;61.74;100407.53;5038550;28;819;-45
2021/06/27 00:40:59;;;;;;;;;;;;;;;21.06;61.46;100397.97;5056204;28;775;-46
2021/06/27 00:43:24;;;;;;;;;;;;;;;20.08;63.23;100386.28;5056149;28;756;-47
2021/06/27 00:45:49;;;;;;;;;;;;;;;19.93;61.93;100387.38;5055954;28;788;-46
2021/06/27 00:48:15;;;;;;;;;;;;;;;19.26;61.35;100394.88;5055804;28;967;-46
2021/06/27 00:50:45;;;;;;;;;;;;;;;19.56;59.65;100387.22;5056248;28;772;-46
2021/06/27 00:53:10;;;;;;;;;;;;;;;19.96;58.73;100381.25;5056062;28;837;-46
2021/06/27 00:55:36;;;;;;;;;;;;;;;20.29;60.75;100389.44;5055645;28;1972;-46
2021/06/27 00:58:01;;;;;;;;;;;;;;;20.74;60.66;100394.31;5056118;28;808;-47
2021/06/27 01:00:28;;;;;;;;;;;;;;;20.49;60.15;100391.75;5055977;28;854;-46
2021/06/27 01:02:53;;;;;;;;;;;;;;;20.38;59.09;100393.09;5055584;28;768;-46
2021/06/27 01:05:20;;;;;;;;;;;;;;;20.26;58.02;100392.78;5055754;28;995;-46
2021/06/27 01:07:45;;;;;;;;;;;;;;;20.04;57.15;100388.81;5055906;28;808;-46
2021/06/27 01:10:11;;;;;;;;;;;;;;;19.98;56.93;100379.03;5055878;28;768;-46
2021/06/27 01:12:36;;;;;;;;;;;;;;;20.05;57.36;100378.59;5055770;28;954;-46
2021/06/27 01:15:05;;;;;;;;;;;;;;;20.24;57.71;100370.22;5055718;28;1902;-45
2021/06/27 01:17:30;;;;;;;;;;;;;;;20.26;58.50;100356.91;5055659;28;807;-46
2021/06/27 01:19:56;;;;;;;;;;;;;;;20.35;58.96;100352.28;5055958;28;991;-48
2021/06/27 01:22:23;;;;;;;;;;;;;;;20.48;59.11;100348.69;5055691;28;858;-46
2021/06/27 01:24:49;;;;;;;;;;;;;;;20.51;59.50;100342.56;5055609;28;1194;-46
2021/06/27 01:27:15;;;;;;;;;;;;;;;20.63;59.88;100341.19;5055579;28;883;-46
2021/06/27 01:29:40;;;;;;;;;;;;;;;20.69;59.85;100353.78;5055955;28;752;-49
2021/06/27 01:32:10;;;;;;;;;;;;;;;20.63;60.52;100366.84;5055301;28;796;-48
2021/06/27 01:34:37;;;;;;;;;;;;;;;20.55;60.81;100381.41;5038127;28;1905;-46
2021/06/27 01:37:03;;;;;;;;;;;;;;;20.22;62.36;100378.81;5055788;28;751;-46
2021/06/27 01:39:28;;;;;;;;;;;;;;;20.03;61.50;100389.94;5037538;28;1280;-45
2021/06/27 01:41:53;;;;;;;;;;;;;;;20.02;61.75;100398.53;5055847;28;788;-46
2021/06/27 01:44:19;;;;;;;;;;;;;;;20.73;61.95;100404.50;5059052;28;820;-46
2021/06/27 01:46:44;;;;;;;;;;;;;;;21.09;62.31;100406.44;5058736;28;803;-46
2021/06/27 01:49:13;;;;;;;;;;;;;;;21.31;62.64;100407.59;5041102;28;963;-46
2021/06/27 01:51:39;;;;;;;;;;;;;;;20.70;65.74;100402.38;5059229;28;767;-46
2021/06/27 01:54:05;;;;;;;;;;;;;;;20.86;65.92;100405.63;5058302;28;1975;-46
2021/06/27 01:56:30;;;;;;;;;;;;;;;20.45;63.96;100403.72;5059087;28;832;-46
2021/06/27 01:58:57;;;;;;;;;;;;;;;20.24;62.37;100393.09;5059101;28;882;-46
2021/06/27 02:01:25;;;;;;;;;;;;;;;20.83;64.40;100404.31;5058454;28;771;-45
2021/06/27 02:03:51;;;;;;;;;;;;;;;21.57;65.21;100404.22;5058588;28;950;-45
2021/06/27 02:06:17;;;;;;;;;;;;;;;21.89;66.01;100400.28;5058866;28;739;-48
2021/06/27 02:08:43;;;;;;;;;;;;;;;21.99;66.45;100400.03;5058603;28;752;-46
2021/06/27 02:11:09;;;;;;;;;;;;;;;21.39;67.01;100392.19;5059115;28;1554;-48
2021/06/27 02:13:34;;;;;;;;;;;;;;;21.10;67.35;100397.03;5058965;28;748;-45
2021/06/27 02:16:00;;;;;;;;;;;;;;;20.62;62.86;100394.78;5058039;28;1973;-47
2021/06/27 02:18:25;;;;;;;;;;;;;;;20.44;63.00;100378.06;5058457;28;947;-46
2021/06/27 02:20:51;;;;;;;;;;;;;;;20.47;63.62;100388.50;5058879;28;720;-46
2021/06/27 02:23:17;;;;;;;;;;;;;;;20.38;62.96;100390.31;5058205;28;788;-46
2021/06/27 02:25:43;;;;;;;;;;;;;;;20.25;61.33;100402.22;5058397;28;1190;-46
2021/06/27 02:28:08;;;;;;;;;;;;;;;20.12;60.28;100399.16;5058453;28;744;-46
2021/06/27 02:30:34;;;;;;;;;;;;;;;20.09;60.17;100404.47;5057942;28;744;-47
2021/06/27 02:32:59;;;;;;;;;;;;;;;20.57;60.08;100414.25;5058705;28;767;-46
2021/06/27 02:35:24;;;;;;;;;;;;;;;20.93;61.37;100419.00;5057761;28;1978;-46
2021/06/27 02:37:50;;;;;;;;;;;;;;;21.09;62.72;100416.69;5058485;28;752;-46
2021/06/27 02:40:15;;;;;;;;;;;;;;;20.79;64.43;100430.91;5058300;28;808;-46
2021/06/27 02:42:41;;;;;;;;;;;;;;;20.39;66.53;100436.16;5058052;28;828;-45
2021/06/27 02:45:07;;;;;;;;;;;;;;;19.95;64.70;100434.81;5057979;28;747;-47
2021/06/27 02:47:32;;;;;;;;;;;;;;;20.47;63.68;100445.69;5058150;28;807;-48
2021/06/27 02:49:58;;;;;;;;;;;;;;;20.71;63.32;100442.69;5057598;28;959;-46
2021/06/27 02:52:23;;;;;;;;;;;;;;;20.66;62.18;100448.31;5058075;28;824;-46
2021/06/27 02:54:48;;;;;;;;;;;;;;;20.47;60.32;100454.78;5057217;28;1922;-46
2021/06/27 02:57:14;;;;;;;;;;;;;;;20.18;59.37;100450.38;5057896;28;748;-46
2021/06/27 02:59:39;;;;;;;;;;;;;;;20.19;58.35;100451.19;5057914;28;744;-46
2021/06/27 03:02:05;;;;;;;;;;;;;;;20.13;57.43;100453.25;5057387;28;824;-50
2021/06/27 03:04:30;;;;;;;;;;;;;;;19.97;57.56;100460.16;5057329;28;1006;-45
2021/06/27 03:06:56;;;;;;;;;;;;;;;20.14;58.09;100459.56;5057711;28;800;-47
2021/06/27 03:09:21;;;;;;;;;;;;;;;20.35;59.06;100460.78;5057791;28;910;-48
2021/06/27 03:11:46;;;;;;;;;;;;;;;20.66;60.29;100459.34;5058130;28;839;-47
2021/06/27 03:14:12;;;;;;;;;;;;;;;20.96;61.15;100465.38;5052409;28;1922;-46
2021/06/27 03:16:37;;;;;;;;;;;;;;;21.03;62.10;100458.28;5045479;28;1218;-48
2021/06/27 03:19:03;;;;;;;;;;;;;;;20.50;64.17;100450.59;5057531;28;787;-47
2021/06/27 03:21:28;;;;;;;;;;;;;;;20.23;63.17;100443.94;5042151;28;1163;-47
2021/06/27 03:23:54;;;;;;;;;;;;;;;19.58;61.31;100445.63;5037297;28;1009;-47
2021/06/27 03:26:19;;;;;;;;;;;;;;;19.86;61.49;100445.72;5035949;28;829;-48
2021/06/27 03:28:50;;;;;;;;;;;;;;;20.10;59.62;100447.50;5037403;28;881;-45
2021/06/27 03:31:16;;;;;;;;;;;;;;;20.23;59.33;100446.72;5057302;28;800;-47
2021/06/27 03:33:41;;;;;;;;;;;;;;;20.34;59.27;100459.19;5057603;28;736;-45
2021/06/27 03:36:07;;;;;;;;;;;;;;;20.47;58.92;100459.50;5056457;28;1902;-44
2021/06/27 03:38:47;;;;;;;;;;;;;;;20.56;58.87;100454.84;5057103;28;791;-45
2021/06/27 03:41:18;;;;;;;;;;;;;;;20.48;59.07;100452.81;5057164;28;819;-45
2021/06/27 03:43:43;;;;;;;;;;;;;;;20.47;59.14;100440.97;5056235;28;963;-42
2021/06/27 03:46:09;;;;;;;;;;;;;;;20.58;59.01;100454.53;5056783;28;751;-42
2021/06/27 03:48:34;;;;;;;;;;;;;;;20.43;59.50;100458.47;5036849;28;1108;-45
2021/06/27 03:51:00;;;;;;;;;;;;;;;20.66;58.98;100448.31;5036414;28;803;-42
2021/06/27 03:53:25;;;;;;;;;;;;;;;20.72;58.82;100460.09;5036959;28;729;-43
2021/06/27 03:55:56;;;;;;;;;;;;;;;20.60;59.29;100472.44;5036536;28;1902;-60
2021/06/27 03:58:22;;;;;;;;;;;;;;;20.67;59.15;100455.47;5036307;28;756;-48
2021/06/27 04:00:47;;;;;;;;;;;;;;;20.76;58.86;100463.88;5054812;28;952;-43
2021/06/27 04:03:13;;;;;;;;;;;;;;;20.68;59.08;100451.63;5056455;28;851;-61
2021/06/27 04:05:38;;;;;;;;;;;;;;;20.70;59.15;100465.94;5037428;28;918;-60
2021/06/27 04:08:04;;;;;;;;;;;;;;;20.68;59.17;100457.13;5056599;28;796;-60
2021/06/27 04:10:29;;;;;;;;;;;;;;;20.17;60.73;100459.78;5056265;28;795;-57
2021/06/27 04:12:55;;;;;;;;;;;;;;;19.66;61.77;100460.69;5056465;28;829;-48
2021/06/27 04:15:20;;;;;;;;;;;;;;;20.08;61.16;100455.28;5055977;28;1959;-60
2021/06/27 04:17:46;;;;;;;;;;;;;;;20.50;60.71;100459.66;5056292;28;773;-61
2021/06/27 04:20:12;;;;;;;;;;;;;;;20.83;61.37;100459.56;5056480;28;803;-44
2021/06/27 04:22:37;;;;;;;;;;;;;;;21.02;62.15;100459.41;5056341;28;852;-44
2021/06/27 04:25:03;;;;;;;;;;;;;;;20.82;63.98;100457.94;5056157;28;1120;-59
2021/06/27 04:27:29;;;;;;;;;;;;;;;20.76;65.06;100459.19;5056248;28;795;-45
2021/06/27 04:29:54;;;;;;;;;;;;;;;20.11;63.61;100455.47;5055793;28;1006;-60
2021/06/27 04:32:20;;;;;;;;;;;;;;;19.91;62.38;100462.19;5056182;28;745;-58
2021/06/27 04:34:45;;;;;;;;;;;;;;;20.94;63.82;100459.34;5056234;28;1914;-61
2021/06/27 04:37:11;;;;;;;;;;;;;;;21.39;64.62;100464.09;5055559;28;808;-66
2021/06/27 04:39:36;;;;;;;;;;;;;;;20.94;65.52;100465.66;5056370;28;796;-64
2021/06/27 04:42:01;;;;;;;;;;;;;;;21.02;62.75;100464.94;5056557;28;787;-60
2021/06/27 04:44:27;;;;;;;;;;;;;;;20.97;59.65;100475.28;5055364;28;983;-47
2021/06/27 04:46:52;;;;;;;;;;;;;;;20.45;59.19;100478.28;5055953;28;832;-48
2021/06/27 04:49:18;;;;;;;;;;;;;;;20.38;57.75;100486.97;5056284;28;783;-47
2021/06/27 04:51:43;;;;;;;;;;;;;;;20.40;56.75;100484.75;5037502;28;790;-48
2021/06/27 04:54:09;;;;;;;;;;;;;;;20.21;56.25;100481.25;5056097;28;1906;-65
2021/06/27 04:56:34;;;;;;;;;;;;;;;20.39;55.95;100477.59;5055807;28;764;-61
2021/06/27 04:59:00;;;;;;;;;;;;;;;20.51;58.02;100472.38;5055133;28;967;-48
2021/06/27 05:01:25;;;;;;;;;;;;;;;21.14;59.02;100475.47;5056127;28;744;-46
2021/06/27 05:03:50;;;;;;;;;;;;;;;21.11;60.98;100475.25;5055958;28;787;-45
2021/06/27 05:06:16;;;;;;;;;;;;;;;20.72;63.67;100471.13;5055424;28;772;-45
2021/06/27 05:08:42;;;;;;;;;;;;;;;20.58;64.92;100473.88;5055871;28;788;-47
2021/06/27 05:11:07;;;;;;;;;;;;;;;20.32;62.73;100479.94;5055901;28;859;-46
2021/06/27 05:13:33;;;;;;;;;;;;;;;20.98;63.77;100476.94;5055466;28;815;-46
2021/06/27 05:15:58;;;;;;;;;;;;;;;21.52;64.88;100486.19;5055845;28;1987;-45
2021/06/27 05:18:24;;;;;;;;;;;;;;;21.75;64.79;100494.47;5059034;28;756;-62
2021/06/27 05:20:49;;;;;;;;;;;;;;;21.94;64.20;100491.50;5059562;28;800;-62
2021/06/27 05:23:15;;;;;;;;;;;;;;;21.03;65.89;100493.41;5059713;28;760;-61
2021/06/27 05:25:40;;;;;;;;;;;;;;;20.47;65.22;100498.97;5059210;28;1227;-48
2021/06/27 05:28:06;;;;;;;;;;;;;;;20.42;62.20;100501.81;5059074;28;799;-44
2021/06/27 05:30:31;;;;;;;;;;;;;;;20.80;62.27;100498.88;5059236;28;970;-44
2021/06/27 05:32:57;;;;;;;;;;;;;;;20.92;60.71;100500.28;5059585;28;776;-44
2021/06/27 05:35:22;;;;;;;;;;;;;;;20.84;59.36;100504.59;5059066;28;1918;-45
2021/06/27 05:37:48;;;;;;;;;;;;;;;20.71;58.95;100502.69;5059654;28;871;-46
2021/06/27 05:40:13;;;;;;;;;;;;;;;20.67;58.43;100505.19;5041288;28;1259;-44
2021/06/27 05:42:39;;;;;;;;;;;;;;;20.77;57.68;100505.00;5059071;28;768;-44
2021/06/27 05:45:05;;;;;;;;;;;;;;;20.57;57.78;100495.19;5059456;28;951;-44
2021/06/27 05:47:30;;;;;;;;;;;;;;;20.40;58.02;100506.84;5059114;28;744;-45
2021/06/27 05:49:56;;;;;;;;;;;;;;;20.47;57.60;100512.78;5059457;28;822;-44
2021/06/27 05:52:21;;;;;;;;;;;;;;;20.58;57.18;100515.31;5044779;28;1202;-45
2021/06/27 05:54:46;;;;;;;;;;;;;;;20.47;57.23;100507.25;5039103;28;1914;-44
2021/06/27 05:57:12;;;;;;;;;;;;;;;20.57;57.05;100505.41;5038565;28;883;-47
2021/06/27 05:59:37;;;;;;;;;;;;;;;20.59;56.68;100515.00;5047858;28;1010;-44
2021/06/27 06:02:03;;;;;;;;;;;;;;;20.41;57.13;100525.06;5058840;28;847;-44
2021/06/27 06:04:29;;;;;;;;;;;;;;;20.53;56.60;100521.78;5058560;28;843;-44
2021/06/27 06:06:55;;;;;;;;;;;;;;;20.33;57.37;100532.09;5058804;28;824;-47
2021/06/27 06:09:20;;;;;;;;;;;;;;;20.27;57.59;100535.25;5058745;28;875;-45
2021/06/27 06:11:46;;;;;;;;;;;;;;;20.45;56.64;100539.84;5040316;28;941;-45
2021/06/27 06:14:12;;;;;;;;;;;;;;;20.51;56.61;100540.59;5058616;28;1925;-45
2021/06/27 06:16:38;;;;;;;;;;;;;;;20.36;57.05;100544.47;5058633;28;855;-45
2021/06/27 06:19:03;;;;;;;;;;;;;;;20.25;57.47;100540.25;5058165;28;967;-45
2021/06/27 06:21:29;;;;;;;;;;;;;;;20.25;57.32;100546.59;5058629;28;744;-45
2021/06/27 06:23:54;;;;;;;;;;;;;;;20.35;57.07;100548.34;5039135;28;1158;-44
2021/06/27 06:26:20;;;;;;;;;;;;;;;20.38;56.75;100544.97;5038065;28;764;-45
2021/06/27 06:28:45;;;;;;;;;;;;;;;20.35;56.99;100548.34;5037160;28;1022;-45
2021/06/27 06:31:10;;;;;;;;;;;;;;;20.39;56.79;100549.38;5038755;28;840;-45
2021/06/27 06:33:36;;;;;;;;;;;;;;;20.26;57.27;100533.59;5037797;28;844;-46
2021/06/27 06:36:01;;;;;;;;;;;;;;;20.28;57.12;100545.16;5038182;28;1985;-45
2021/06/27 06:38:27;;;;;;;;;;;;;;;20.33;56.95;100540.38;5038198;28;832;-45
2021/06/27 06:40:52;;;;;;;;;;;;;;;20.38;56.96;100536.69;5038176;28;816;-44
2021/06/27 06:43:18;;;;;;;;;;;;;;;20.38;56.93;100530.34;5038191;28;820;-45
2021/06/27 06:45:43;;;;;;;;;;;;;;;20.34;56.78;100528.22;5055486;28;1009;-45
2021/06/27 06:48:09;;;;;;;;;;;;;;;20.28;57.18;100526.66;5057678;28;756;-44
2021/06/27 06:50:34;;;;;;;;;;;;;;;20.34;56.96;100521.84;5057970;28;823;-46
2021/06/27 06:52:59;;;;;;;;;;;;;;;20.34;56.94;100524.63;5057999;28;486;-45
2021/06/27 06:55:27;;;;;;;;;;;;;;;20.33;57.06;100525.75;5057643;28;1906;-45
2021/06/27 06:57:52;;;;;;;;;;;;;;;20.29;57.19;100527.50;5057470;28;748;-45
2021/06/27 07:00:18;;;;;;;;;;;;;;;20.52;56.54;100531.19;5057355;28;1010;-45
2021/06/27 07:02:43;;;;;;;;;;;;;;;20.34;57.14;100530.13;5057680;28;755;-45
2021/06/27 07:05:09;;;;;;;;;;;;;;;20.40;56.96;100528.94;5057361;28;803;-44
2021/06/27 07:07:35;;;;;;;;;;;;;;;20.37;57.18;100532.31;5057613;28;965;-44
2021/06/27 07:10:00;;;;;;;;;;;;;;;20.47;56.69;100518.28;5057381;28;850;-44
2021/06/27 07:12:26;;;;;;;;;;;;;;;20.51;56.68;100533.13;5057543;28;787;-45
2021/06/27 07:14:51;;;;;;;;;;;;;;;20.41;56.90;100530.56;5057388;28;1931;-45
2021/06/27 07:17:16;;;;;;;;;;;;;;;20.49;56.87;100534.56;5057805;28;776;-44
2021/06/27 07:19:42;;;;;;;;;;;;;;;20.39;57.13;100538.34;5057129;28;772;-45
2021/06/27 07:22:07;;;;;;;;;;;;;;;20.51;56.82;100533.13;5057256;28;798;-44
2021/06/27 07:24:33;;;;;;;;;;;;;;;20.47;56.84;100537.63;5057411;28;997;-44
2021/06/27 07:26:58;;;;;;;;;;;;;;;20.58;56.65;100531.91;5057034;28;795;-44
2021/06/27 07:29:23;;;;;;;;;;;;;;;20.48;56.75;100528.22;5056700;28;962;-44
2021/06/27 07:31:49;;;;;;;;;;;;;;;20.45;56.86;100528.81;5057136;28;776;-63
2021/06/27 07:34:14;;;;;;;;;;;;;;;20.51;56.68;100524.84;5056622;28;1905;-61
2021/06/27 07:36:41;;;;;;;;;;;;;;;20.38;57.30;100531.16;5056953;28;760;-58
2021/06/27 07:39:06;;;;;;;;;;;;;;;20.55;56.80;100522.28;5057000;28;807;-49
2021/06/27 07:41:31;;;;;;;;;;;;;;;20.51;56.63;100527.59;5056485;28;764;-49
2021/06/27 07:43:57;;;;;;;;;;;;;;;20.51;56.79;100513.78;5056955;28;963;-46
2021/06/27 07:46:22;;;;;;;;;;;;;;;20.41;57.32;100532.50;5056923;28;803;-51
2021/06/27 07:48:48;;;;;;;;;;;;;;;20.53;56.65;100521.78;5056383;28;855;-60
2021/06/27 07:51:13;;;;;;;;;;;;;;;20.60;56.56;100527.69;5056737;28;744;-51
2021/06/27 07:53:38;;;;;;;;;;;;;;;20.53;56.78;100532.81;5039103;28;749;-53
2021/06/27 07:56:04;;;;;;;;;;;;;;;20.52;56.80;100529.25;5055325;28;1914;-55
2021/06/27 07:58:29;;;;;;;;;;;;;;;20.55;56.92;100538.03;5038983;28;1238;-61
2021/06/27 08:00:58;;;;;;;;;;;;;;;20.55;56.91;100540.81;5056249;28;947;-44
2021/06/27 08:03:23;;;;;;;;;;;;;;;20.41;57.28;100544.38;5056112;28;887;-43
2021/06/27 08:05:49;;;;;;;;;;;;;;;20.50;57.15;100538.97;5056564;28;736;-45
2021/06/27 08:08:15;;;;;;;;;;;;;;;20.55;56.85;100541.59;5056577;28;804;-53
2021/06/27 08:10:42;;;;;;;;;;;;;;;20.46;57.08;100558.06;5056233;28;817;-59
2021/06/27 08:13:08;;;;;;;;;;;;;;;20.46;57.30;100549.78;5056978;28;752;-60
2021/06/27 08:15:34;;;;;;;;;;;;;;;20.66;56.51;100558.81;5056178;28;1968;-45
2021/06/27 08:17:59;;;;;;;;;;;;;;;20.63;56.85;100567.72;5056044;28;775;-61
2021/06/27 08:20:27;;;;;;;;;;;;;;;20.53;56.98;100560.44;5056357;28;839;-45
2021/06/27 08:22:53;;;;;;;;;;;;;;;20.51;56.93;100569.03;5056555;28;895;-44
2021/06/27 08:25:18;;;;;;;;;;;;;;;20.66;56.32;100570.69;5038121;28;1207;-45
2021/06/27 08:27:47;;;;;;;;;;;;;;;20.65;56.68;100562.69;5056365;28;815;-45
2021/06/27 08:30:13;;;;;;;;;;;;;;;20.55;57.07;100579.47;5055689;28;1014;-48
2021/06/27 08:32:43;;;;;;;;;;;;;;;20.70;56.75;100572.88;5056078;28;772;-61
2021/06/27 08:35:10;;;;;;;;;;;;;;;20.59;56.86;100569.44;5056162;28;1981;-60
2021/06/27 08:37:35;;;;;;;;;;;;;;;20.58;56.91;100574.16;5056169;28;816;-61
2021/06/27 08:40:00;;;;;;;;;;;;;;;20.64;56.82;100567.41;5055982;28;760;-61
2021/06/27 08:42:26;;;;;;;;;;;;;;;20.39;57.44;100562.38;5056390;28;795;-60
2021/06/27 08:44:52;;;;;;;;;;;;;;;19.90;59.05;100570.13;5021882;28;1108;-50
2021/06/27 08:47:18;;;;;;;;;;;;;;;19.48;59.02;100570.72;5038145;28;812;-47
2021/06/27 08:49:47;;;;;;;;;;;;;;;20.04;58.51;100570.97;5056192;28;820;-47
2021/06/27 08:52:16;;;;;;;;;;;;;;;20.26;58.38;100572.25;5057600;28;811;-46
2021/06/27 08:54:41;;;;;;;;;;;;;;;20.55;59.11;100573.94;5059819;28;1914;-49
2021/06/27 08:57:07;;;;;;;;;;;;;;;21.12;59.75;100571.69;5042327;28;851;-60
2021/06/27 08:59:32;;;;;;;;;;;;;;;20.51;63.23;100573.75;5059782;28;971;-46
2021/06/27 09:01:59;;;;;;;;;;;;;;;20.54;65.00;100566.78;5059515;28;796;-55
2021/06/27 09:04:24;;;;;;;;;;;;;;;20.26;63.19;100562.03;5041818;28;1434;-48
2021/06/27 09:06:50;;;;;;;;;;;;;;;20.50;62.05;100572.09;5040028;28;732;-47
2021/06/27 09:09:19;;;;;;;;;;;;;;;20.59;66.36;100563.91;5022249;28;788;-48
2021/06/27 09:11:59;;;;;;;;;;;;;;;20.75;67.21;100562.53;5039594;28;776;-49
2021/06/27 09:14:28;;;;;;;;;;;;;;;20.78;66.66;100566.63;5046636;28;1905;-61
2021/06/27 09:17:06;;;;;;;;;;;;;;;20.92;66.02;100567.44;5060002;28;760;-49
2021/06/27 09:19:32;;;;;;;;;;;;;;;20.77;68.14;100565.78;5059970;28;771;-52
2021/06/27 09:22:10;;;;;;;;;;;;;;;20.98;67.78;100555.13;5041614;28;1314;-62
2021/06/27 09:24:36;;;;;;;;;;;;;;;21.00;68.13;100558.41;5059042;28;1071;-63
2021/06/27 09:27:16;;;;;;;;;;;;;;;21.32;68.04;100553.03;5059617;28;824;-49
2021/06/27 09:29:45;;;;;;;;;;;;;;;21.24;68.25;100556.53;5059332;28;1002;-49
2021/06/27 09:32:14;;;;;;;;;;;;;;;21.29;68.14;100556.41;5059483;28;854;-62
2021/06/27 09:34:43;;;;;;;;;;;;;;;20.93;68.74;100560.78;5059256;28;1973;-46
2021/06/27 09:37:08;;;;;;;;;;;;;;;21.16;67.10;100555.31;5059487;28;807;-45
2021/06/27 09:39:34;;;;;;;;;;;;;;;21.29;67.67;100560.00;5058885;28;823;-45
2021/06/27 09:42:03;;;;;;;;;;;;;;;21.46;67.59;100559.34;5059447;28;764;-45
2021/06/27 09:44:29;;;;;;;;;;;;;;;21.19;68.02;100555.50;5059003;28;971;-64
2021/06/27 09:46:55;;;;;;;;;;;;;;;20.93;66.87;100563.56;5058739;28;775;-45
2021/06/27 09:49:26;;;;;;;;;;;;;;;20.48;67.01;100558.59;5059533;28;834;-44
2021/06/27 09:51:52;;;;;;;;;;;;;;;20.08;65.78;100549.94;5059244;28;836;-46
2021/06/27 09:54:19;;;;;;;;;;;;;;;20.02;64.30;100548.41;5058666;28;1969;-61
2021/06/27 09:56:45;;;;;;;;;;;;;;;19.92;63.08;100554.06;5041544;28;1209;-47
2021/06/27 09:59:11;;;;;;;;;;;;;;;19.72;62.41;100547.75;5058824;28;1014;-45
2021/06/27 10:01:37;;;;;;;;;;;;;;;19.69;61.50;100559.38;5058416;28;808;-43
2021/06/27 10:04:03;;;;;;;;;;;;;;;19.55;60.81;100564.84;5058355;28;782;-43
2021/06/27 10:06:30;;;;;;;;;;;;;;;19.87;60.12;100559.69;5058919;28;791;-44
2021/06/27 10:08:55;;;;;;;;;;;;;;;20.26;60.13;100558.44;5058467;28;546;-44
2021/06/27 10:11:22;;;;;;;;;;;;;;;20.73;61.80;100559.25;5041000;28;1467;-45
2021/06/27 10:13:48;;;;;;;;;;;;;;;21.08;62.87;100565.16;5058532;28;1027;-59
2021/06/27 10:16:21;;;;;;;;;;;;;;;20.70;65.62;100557.09;5058205;28;1989;-50
2021/06/27 10:18:47;;;;;;;;;;;;;;;20.46;66.81;100563.59;5058743;28;875;-45
2021/06/27 10:21:12;;;;;;;;;;;;;;;20.37;64.09;100562.69;5058401;28;934;-45
2021/06/27 10:23:37;;;;;;;;;;;;;;;20.94;63.47;100556.88;5058025;28;1016;-45
2021/06/27 10:26:04;;;;;;;;;;;;;;;21.52;65.42;100558.13;5058808;28;1025;-45
2021/06/27 10:28:31;;;;;;;;;;;;;;;21.98;65.67;100558.13;5040800;28;792;-45
2021/06/27 10:30:56;;;;;;;;;;;;;;;22.17;65.51;100560.69;5058757;28;1014;-45
2021/06/27 10:33:21;;;;;;;;;;;;;;;21.43;67.80;100557.19;5040183;28;853;-47
2021/06/27 10:35:48;;;;;;;;;;;;;;;21.48;67.15;100557.09;5058089;28;1917;-45
2021/06/27 10:38:13;;;;;;;;;;;;;;;20.68;63.14;100556.59;5039927;28;774;-44
2021/06/27 10:40:51;;;;;;;;;;;;;;;20.67;61.54;100566.81;5058607;28;791;-46
2021/06/27 10:43:17;;;;;;;;;;;;;;;20.67;61.72;100561.28;5058026;28;819;-45
2021/06/27 10:45:45;;;;;;;;;;;;;;;20.57;60.62;100555.13;5057545;28;1007;-44
2021/06/27 10:48:29;;;;;;;;;;;;;;;20.25;60.17;100554.88;5057981;28;824;-46
2021/06/27 10:50:55;;;;;;;;;;;;;;;20.45;58.46;100550.91;5058207;28;783;-44
2021/06/27 10:53:20;;;;;;;;;;;;;;;20.35;58.63;100543.63;5057560;28;869;-60
2021/06/27 10:55:46;;;;;;;;;;;;;;;20.46;58.32;100549.78;5039570;28;1918;-55
2021/06/27 10:58:11;;;;;;;;;;;;;;;20.49;58.22;100538.13;5058065;28;847;-51
2021/06/27 11:03:26;;;;;;;;;;;;;;;20.45;58.00;100548.16;5057577;28;786;-44
2021/06/27 11:05:57;;;;;;;;;;;;;;;20.52;57.55;100547.75;5058151;28;770;-43
2021/06/27 11:08:35;;;;;;;;;;;;;;;20.47;57.73;100545.09;5057603;28;822;-43
2021/06/27 11:11:04;;;;;;;;;;;;;;;20.48;57.73;100547.56;5057745;28;847;-44
2021/06/27 11:13:30;;;;;;;;;;;;;;;20.58;57.42;100545.72;5039477;28;835;-44
2021/06/27 11:15:56;;;;;;;;;;;;;;;20.63;57.19;100548.38;5056610;28;1985;-45
2021/06/27 11:18:31;;;;;;;;;;;;;;;20.46;57.76;100547.03;5057594;28;858;-44
2021/06/27 11:20:57;;;;;;;;;;;;;;;20.45;57.76;100556.44;5057649;28;988;-43
2021/06/27 11:23:40;;;;;;;;;;;;;;;20.51;57.51;100558.00;5057158;28;795;-44
2021/06/27 11:26:06;;;;;;;;;;;;;;;20.54;57.52;100558.50;5057479;28;855;-45
2021/06/27 11:28:34;;;;;;;;;;;;;;;20.58;57.19;100551.22;5057416;28;764;-44
2021/06/27 11:31:19;;;;;;;;;;;;;;;20.63;57.26;100548.38;5036907;28;815;-43
2021/06/27 11:33:44;;;;;;;;;;;;;;;20.56;57.24;100548.78;5037237;28;796;-44
2021/06/27 11:36:25;;;;;;;;;;;;;;;20.66;56.97;100553.28;5037342;28;1963;-44
2021/06/27 11:38:50;;;;;;;;;;;;;;;20.50;57.32;100550.00;5036842;28;799;-46
2021/06/27 11:41:21;;;;;;;;;;;;;;;20.49;57.65;100554.69;5037269;28;815;-43
2021/06/27 11:43:52;;;;;;;;;;;;;;;20.45;57.51;100556.44;5036651;28;1015;-44
2021/06/27 11:46:45;;;;;;;;;;;;;;;20.46;57.60;100548.97;5036766;28;764;-42
2021/06/27 11:49:26;;;;;;;;;;;;;;;20.65;57.10;100548.88;5034963;28;1427;-54
2021/06/27 11:51:51;;;;;;;;;;;;;;;20.03;58.93;100552.78;5036680;28;848;-50
2021/06/27 11:54:18;;;;;;;;;;;;;;;19.81;59.39;100556.19;5035308;28;1981;-45
2021/06/27 11:56:52;;;;;;;;;;;;;;;19.57;59.94;100547.97;5036926;28;804;-44
2021/06/27 11:59:20;;;;;;;;;;;;;;;20.24;58.88;100557.94;5042105;28;1006;-62
2021/06/27 12:02:04;;;;;;;;;;;;;;;20.75;60.27;100554.25;5050345;28;1143;-45
2021/06/27 12:04:38;;;;;;;;;;;;;;;21.18;61.76;100548.38;5073608;28;752;-48
2021/06/27 12:07:23;;;;;;;;;;;;;;;20.68;65.32;100549.13;5076643;28;823;-43
2021/06/27 12:09:48;;;;;;;;;;;;;;;20.51;65.81;100546.94;5076580;28;792;-46
2021/06/27 12:12:14;;;;;;;;;;;;;;;20.67;61.83;100552.16;5076505;28;787;-48
2021/06/27 12:14:39;;;;;;;;;;;;;;;21.01;62.46;100550.94;5048874;28;1914;-44
2021/06/27 12:17:22;;;;;;;;;;;;;;;21.81;63.86;100551.38;5056742;28;828;-44
2021/06/27 12:19:51;;;;;;;;;;;;;;;22.10;65.39;100550.06;5056533;28;807;-45
2021/06/27 12:22:16;;;;;;;;;;;;;;;22.00;66.46;100551.16;5056083;28;826;-44
2021/06/27 12:24:41;;;;;;;;;;;;;;;21.32;68.48;100550.25;5055959;28;1020;-50
2021/06/27 12:27:10;;;;;;;;;;;;;;;21.36;66.37;100551.28;5056019;28;743;-45
2021/06/27 12:29:36;;;;;;;;;;;;;;;20.84;61.73;100555.16;5037985;28;1272;-57
2021/06/27 12:32:05;;;;;;;;;;;;;;;20.92;60.97;100558.34;5056109;28;764;-43
2021/06/27 12:34:30;;;;;;;;;;;;;;;21.28;61.80;100557.53;5056255;28;1981;-57
2021/06/27 12:36:56;;;;;;;;;;;;;;;21.33;61.78;100554.66;5056226;28;807;-44
2021/06/27 12:39:22;;;;;;;;;;;;;;;21.38;61.60;100562.84;5056192;28;859;-45
2021/06/27 12:41:48;;;;;;;;;;;;;;;21.19;61.27;100547.22;5056364;28;748;-57
2021/06/27 12:44:14;;;;;;;;;;;;;;;21.09;59.85;100566.00;5055539;28;951;-45
2021/06/27 12:46:40;;;;;;;;;;;;;;;20.79;59.53;100562.72;5056191;28;866;-57
2021/06/27 12:49:10;;;;;;;;;;;;;;;20.76;58.58;100566.09;5056247;28;803;-43
2021/06/27 12:51:37;;;;;;;;;;;;;;;20.67;57.85;100552.16;5055724;28;788;-57
2021/06/27 12:54:06;;;;;;;;;;;;;;;20.68;57.43;100562.13;5055828;28;875;-43
2021/06/27 12:56:41;;;;;;;;;;;;;;;20.59;57.34;100563.91;5056042;28;1909;-49